Time,TemperatureF,DewpointF,PressureIn,WindDirection,WindDirectionDegrees,WindSpeedMPH,WindSpeedGustMPH,Humidity,HourlyPrecipIn,Conditions,Clouds,dailyrainin,SoftwareType,DateUTC
2013-01-25 00:00:00,55.7,18.4,30.13,SSW,202,0.0,1.0,23,0.00,,,-99.99,WeatherLink 5.7,2013-01-25 06:00:00,
2013-01-25 00:30:00,54.5,18.4,30.12,North,-999,0.0,0.0,24,0.00,,,-99.99,WeatherLink 5.7,2013-01-25 06:30:00,
2013-01-25 01:00:00,53.3,17.4,30.12,North,-999,0.0,0.0,24,0.00,,,-99.99,WeatherLink 5.7,2013-01-25 07:00:00,
2013-01-25 01:30:00,53.2,17.3,30.12,North,-999,0.0,0.0,24,0.00,,,-99.99,WeatherLink 5.7,2013-01-25 07:30:00,
2013-01-25 02:00:00,53.7,17.7,30.11,North,-999,0.0,0.0,24,0.00,,,-99.99,WeatherLink 5.7,2013-01-25 08:00:00,
2013-01-25 02:30:00,52.0,17.2,30.10,North,-999,0.0,0.0,25,0.00,,,-99.99,WeatherLink 5.7,2013-01-25 08:30:00,
2013-01-25 03:00:00,51.4,16.7,30.10,North,-999,0.0,0.0,25,0.00,,,-99.99,WeatherLink 5.7,2013-01-25 09:00:00,
2013-01-25 03:30:00,51.3,16.6,30.10,North,-999,0.0,0.0,25,0.00,,,-99.99,WeatherLink 5.7,2013-01-25 09:30:00,
2013-01-25 04:00:00,50.6,16.0,30.10,North,-999,0.0,0.0,25,0.00,,,-99.99,WeatherLink 5.7,2013-01-25 10:00:00,
2013-01-25 04:30:00,49.7,15.2,30.10,North,-999,0.0,0.0,25,0.01,,,-99.99,WeatherLink 5.7,2013-01-25 10:30:00,
2013-01-25 05:00:00,49.4,15.9,30.11,North,-999,0.0,0.0,26,0.01,,,-99.99,WeatherLink 5.7,2013-01-25 11:00:00,
2013-01-25 05:30:00,48.2,14.9,30.12,North,-999,0.0,0.0,26,0.00,,,-99.99,WeatherLink 5.7,2013-01-25 11:30:00,
2013-01-25 06:00:00,47.3,14.1,30.13,North,-999,0.0,0.0,26,0.00,,,-99.99,WeatherLink 5.7,2013-01-25 12:00:00,
2013-01-25 06:30:00,47.3,14.1,30.13,North,-999,0.0,0.0,26,0.00,,,-99.99,WeatherLink 5.7,2013-01-25 12:30:00,
2013-01-25 07:00:00,47.1,13.9,30.13,North,-999,0.0,0.0,26,0.00,,,-99.99,WeatherLink 5.7,2013-01-25 13:00:00,
2013-01-25 07:30:00,47.2,14.0,30.14,North,-999,0.0,0.0,26,0.00,,,-99.99,WeatherLink 5.7,2013-01-25 13:30:00,
2013-01-25 08:00:00,51.2,17.4,30.15,North,-999,0.0,0.0,26,0.00,,,-99.99,WeatherLink 5.7,2013-01-25 14:00:00,
2013-01-25 08:30:00,54.0,18.9,30.14,North,-999,0.0,0.0,25,0.00,,,-99.99,WeatherLink 5.7,2013-01-25 14:30:00,
2013-01-25 09:00:00,59.6,23.7,30.15,North,-999,0.0,0.0,25,0.00,,,-99.99,WeatherLink 5.7,2013-01-25 15:00:00,
2013-01-25 09:30:00,65.2,25.4,30.14,South,180,2.0,9.0,22,0.00,,,-99.99,WeatherLink 5.7,2013-01-25 15:30:00,
2013-01-25 10:00:00,69.6,46.1,30.14,SSW,202,5.0,18.0,43,0.00,,,-99.99,WeatherLink 5.7,2013-01-25 16:00:00,
2013-01-25 10:30:00,69.0,55.0,30.14,South,180,5.0,18.0,61,0.00,,,-99.99,WeatherLink 5.7,2013-01-25 16:30:00,
2013-01-25 11:00:00,69.7,56.1,30.12,South,180,5.0,18.0,62,0.00,,,-99.99,WeatherLink 5.7,2013-01-25 17:00:00,
2013-01-25 11:30:00,70.2,56.6,30.11,South,180,5.0,19.0,62,0.00,,,-99.99,WeatherLink 5.7,2013-01-25 17:30:00,
2013-01-25 12:00:00,70.3,56.7,30.09,South,180,5.0,21.0,62,0.00,,,-99.99,WeatherLink 5.7,2013-01-25 18:00:00,
2013-01-25 12:30:00,70.6,56.9,30.07,South,180,7.0,25.0,62,0.00,,,-99.99,WeatherLink 5.7,2013-01-25 18:30:00,
2013-01-25 13:00:00,68.8,56.1,30.07,SSW,202,5.0,18.0,64,0.00,,,-99.99,WeatherLink 5.7,2013-01-25 19:00:00,
2013-01-25 13:30:00,69.8,56.6,30.07,SSW,202,7.0,22.0,63,0.00,,,-99.99,WeatherLink 5.7,2013-01-25 19:30:00,
2013-01-25 14:00:00,70.3,57.1,30.06,SSW,202,5.0,21.0,63,0.00,,,-99.99,WeatherLink 5.7,2013-01-25 20:00:00,
2013-01-25 14:30:00,70.6,57.4,30.05,SSW,202,6.0,18.0,63,0.00,,,-99.99,WeatherLink 5.7,2013-01-25 20:30:00,
2013-01-25 15:00:00,70.1,56.9,30.05,SSW,202,5.0,18.0,63,0.00,,,-99.99,WeatherLink 5.7,2013-01-25 21:00:00,
2013-01-25 15:30:00,69.8,57.1,30.04,SSW,202,5.0,19.0,64,0.00,,,-99.99,WeatherLink 5.7,2013-01-25 21:30:00,
2013-01-25 16:00:00,69.5,56.8,30.05,SSW,202,5.0,17.0,64,0.00,,,-99.99,WeatherLink 5.7,2013-01-25 22:00:00,
2013-01-25 16:30:00,68.8,56.1,30.04,SSW,202,3.0,16.0,64,0.00,,,-99.99,WeatherLink 5.7,2013-01-25 22:30:00,
2013-01-25 17:00:00,67.1,54.1,30.04,SSW,202,2.0,15.0,63,0.00,,,-99.99,WeatherLink 5.7,2013-01-25 23:00:00,
2013-01-25 17:30:00,65.3,50.6,30.04,South,180,1.0,10.0,59,0.00,,,-99.99,WeatherLink 5.7,2013-01-25 23:30:00,
2013-01-25 18:00:00,64.2,47.7,30.04,SSW,202,0.0,7.0,55,0.00,,,-99.99,WeatherLink 5.7,2013-01-26 00:00:00,
2013-01-25 18:30:00,63.4,43.9,30.03,South,180,1.0,11.0,49,0.00,,,-99.99,WeatherLink 5.7,2013-01-26 00:30:00,
2013-01-25 19:00:00,63.8,41.5,30.02,South,180,2.0,9.0,44,0.00,,,-99.99,WeatherLink 5.7,2013-01-26 01:00:00,
2013-01-25 19:30:00,63.7,40.2,30.03,SSW,202,2.0,9.0,42,0.00,,,-99.99,WeatherLink 5.7,2013-01-26 01:30:00,
2013-01-25 20:00:00,63.6,38.2,30.03,South,180,2.0,7.0,39,0.00,,,-99.99,WeatherLink 5.7,2013-01-26 02:00:00,
2013-01-25 20:30:00,63.6,35.4,30.04,North,-999,0.0,0.0,35,0.00,,,-99.99,WeatherLink 5.7,2013-01-26 02:30:00,
2013-01-25 21:00:00,62.0,31.0,30.05,North,-999,0.0,0.0,31,0.00,,,-99.99,WeatherLink 5.7,2013-01-26 03:00:00,
2013-01-25 21:30:00,61.0,25.8,30.06,North,-999,0.0,0.0,26,0.00,,,-99.99,WeatherLink 5.7,2013-01-26 03:30:00,
2013-01-25 22:00:00,59.5,22.6,30.07,North,-999,0.0,0.0,24,0.00,,,-99.99,WeatherLink 5.7,2013-01-26 04:00:00,
2013-01-25 22:30:00,58.0,20.4,30.07,North,-999,0.0,0.0,23,0.00,,,-99.99,WeatherLink 5.7,2013-01-26 04:30:00,
2013-01-25 23:00:00,57.2,19.7,30.07,North,-999,0.0,0.0,23,0.00,,,-99.99,WeatherLink 5.7,2013-01-26 05:00:00,
2013-01-25 23:30:00,55.7,18.4,30.07,North,-999,0.0,0.0,23,0.00,,,-99.99,WeatherLink 5.7,2013-01-26 05:30:00,